»·PEaware :: N2442P KRNO-KRDD

N2442P :: KRNO-KRDD

FLIGHT INFORMATION

Flight Status: Arrived
Operator: Privately registered:
United States
More flights under this callsign
Pilot: Ken Q. (14290)
Aircraft: MOONEY M-20K/M ENCORE BRAVO
(M20T)
More flights by this aircraft type
Origin: KRNO Reno/Tahoe Intl
United States
Destination: KRDD Redding Mun
United States
More flights between these airports :: More routes between these airports
Route: KRNO RBL RDD KRDD
File this flight plan on PilotEdge
Remarks: X
Altitude:
(Current/Filed)
10,500ft
Speed:
(Current/Filed)
175kts
Departed: 19-Nov-20 01:57 PM
Arrived: 19-Nov-20 02:54 PM
Distance/Time
Traveled:
0nm/0:57
Distance/Time
To Go:
Arrived

Flight Plot

Page will automatically refresh every two minutes.

Flight plan parsing failed; only flown route is shown


Map Options




Map Legend


Flown Route
Filed Route
Departure Airport
Arrival Airport
Navaid (VOR, NDB)
Fix

Horizontal Profiles

Position Reports

Time Latitude Longitude Heading Altitude Ground
Speed
19-Nov-20 13:27 39.501719 -119.764928 81 4418ft 0kts
19-Nov-20 13:28 39.501719 -119.764928 81 4418ft 0kts
19-Nov-20 13:29 39.501719 -119.764928 81 4418ft 0kts
19-Nov-20 13:30 39.501719 -119.764928 81 4418ft 0kts
19-Nov-20 13:31 39.501719 -119.764928 81 4418ft 0kts
19-Nov-20 13:32 39.501719 -119.764928 81 4418ft 0kts
19-Nov-20 13:33 39.501719 -119.764928 81 4418ft 0kts
19-Nov-20 13:34 39.501719 -119.764928 81 4418ft 0kts
19-Nov-20 13:35 39.501719 -119.764928 81 4418ft 0kts
19-Nov-20 13:36 39.501719 -119.764928 81 4418ft 0kts
19-Nov-20 13:37 39.501719 -119.764928 81 4418ft 0kts
19-Nov-20 13:38 39.501719 -119.764928 81 4418ft 0kts
19-Nov-20 13:39 39.501719 -119.764928 81 4418ft 0kts
19-Nov-20 13:40 39.501719 -119.764928 81 4418ft 0kts
19-Nov-20 13:41 39.501720 -119.764927 81 4418ft 0kts
19-Nov-20 13:42 39.501720 -119.764926 81 4418ft 0kts
19-Nov-20 13:43 39.501720 -119.764925 81 4418ft 0kts
19-Nov-20 13:44 39.501720 -119.764924 81 4418ft 0kts
19-Nov-20 13:45 39.501720 -119.764923 81 4418ft 0kts
19-Nov-20 13:46 39.501720 -119.764922 81 4418ft 0kts
19-Nov-20 13:47 39.501720 -119.764921 81 4418ft 0kts
19-Nov-20 13:48 39.501720 -119.764920 81 4418ft 0kts
19-Nov-20 13:49 39.501720 -119.764920 81 4418ft 0kts
19-Nov-20 13:50 39.500827 -119.765806 182 4418ft 10kts
19-Nov-20 13:51 39.496873 -119.765211 179 4418ft 16kts
19-Nov-20 13:52 39.490536 -119.765201 180 4418ft 25kts
19-Nov-20 13:53 39.489286 -119.765769 274 4418ft 0kts
19-Nov-20 13:54 39.489286 -119.765775 274 4418ft 0kts
19-Nov-20 13:55 39.489609 -119.766826 4 4418ft 0kts
19-Nov-20 13:56 39.500175 -119.766804 2 4473ft 91kts
19-Nov-20 13:57 39.526175 -119.773737 344 5198ft 110kts
19-Nov-20 13:58 39.550393 -119.802015 298 5826ft 139kts
19-Nov-20 13:59 39.576074 -119.841615 314 6426ft 148kts
19-Nov-20 14:00 39.600807 -119.885204 303 7089ft 146kts
19-Nov-20 14:01 39.620296 -119.929305 293 7965ft 137kts
19-Nov-20 14:02 39.634024 -119.975423 286 8864ft 138kts
19-Nov-20 14:03 39.642079 -120.024109 272 9777ft 138kts
19-Nov-20 14:04 39.643448 -120.072286 271 10604ft 133kts
19-Nov-20 14:05 39.644851 -120.128244 272 10500ft 170kts
19-Nov-20 14:06 39.646507 -120.190729 272 10496ft 174kts
19-Nov-20 14:07 39.648200 -120.253860 272 10495ft 175kts
19-Nov-20 14:08 39.649905 -120.317272 272 10493ft 175kts
19-Nov-20 14:09 39.651691 -120.380642 275 10492ft 175kts
19-Nov-20 14:10 39.665256 -120.441643 288 10492ft 176kts
19-Nov-20 14:11 39.681039 -120.501972 288 10493ft 176kts
19-Nov-20 14:12 39.696753 -120.562167 288 10493ft 176kts
19-Nov-20 14:13 39.712837 -120.622444 289 10494ft 176kts
19-Nov-20 14:14 39.729350 -120.682397 289 10495ft 176kts
19-Nov-20 14:15 39.745802 -120.742267 289 10494ft 176kts
19-Nov-20 14:16 39.762235 -120.802337 289 10495ft 176kts
19-Nov-20 14:17 39.776820 -120.855697 289 10498ft 175kts
19-Nov-20 14:18 39.793134 -120.915506 289 10499ft 175kts
19-Nov-20 14:19 39.809331 -120.975210 289 10500ft 175kts
19-Nov-20 14:20 39.825473 -121.034766 289 10501ft 175kts
19-Nov-20 14:21 39.841461 -121.094284 289 10501ft 173kts
19-Nov-20 14:22 39.857173 -121.153071 288 10500ft 170kts
19-Nov-20 14:23 39.871177 -121.211915 287 10501ft 169kts
19-Nov-20 14:24 39.884493 -121.270771 285 10501ft 169kts
19-Nov-20 14:25 39.896459 -121.330104 285 10501ft 169kts
19-Nov-20 14:26 39.908369 -121.389486 285 10503ft 169kts
19-Nov-20 14:27 39.920440 -121.450043 285 9966ft 175kts
19-Nov-20 14:28 39.932523 -121.512073 285 9367ft 179kts
19-Nov-20 14:29 39.944444 -121.575483 285 8755ft 182kts
19-Nov-20 14:30 39.956289 -121.639585 285 8147ft 180kts
19-Nov-20 14:31 39.967849 -121.702812 285 7525ft 178kts
19-Nov-20 14:32 39.979475 -121.766538 285 6830ft 181kts
19-Nov-20 14:33 39.990893 -121.830516 285 6137ft 182kts
19-Nov-20 14:34 40.004868 -121.892740 289 5531ft 169kts
19-Nov-20 14:35 40.018403 -121.950058 291 5042ft 165kts
19-Nov-20 14:36 40.034438 -122.006066 293 4462ft 164kts
19-Nov-20 14:37 40.051556 -122.061153 294 3886ft 164kts
19-Nov-20 14:38 40.068535 -122.115765 294 3506ft 155kts
19-Nov-20 14:39 40.083632 -122.165131 294 3507ft 140kts
19-Nov-20 14:40 40.102426 -122.207937 310 3511ft 134kts
19-Nov-20 14:41 40.131799 -122.236051 344 3392ft 143kts
19-Nov-20 14:43 40.172345 -122.250639 346 2901ft 154kts
19-Nov-20 14:44 40.214662 -122.261709 353 2419ft 155kts
19-Nov-20 14:45 40.252501 -122.266576 356 2055ft 150kts
19-Nov-20 14:46 40.288765 -122.269713 358 1747ft 144kts
19-Nov-20 14:47 40.328416 -122.270839 359 1507ft 139kts
19-Nov-20 14:48 40.365284 -122.273970 349 1499ft 124kts
19-Nov-20 14:49 40.396624 -122.283560 348 1495ft 103kts
19-Nov-20 14:50 40.422562 -122.290965 352 1498ft 90kts
19-Nov-20 14:51 40.447235 -122.294732 0 1403ft 87kts
19-Nov-20 14:52 40.470269 -122.294790 359 1215ft 79kts
19-Nov-20 14:53 40.492481 -122.294868 358 777ft 81kts
19-Nov-20 14:54 40.508921 -122.294911 358 506ft 19kts
19-Nov-20 14:55 40.514244 -122.295559 267 506ft 4kts
19-Nov-20 14:56 40.510517 -122.296270 179 506ft 20kts
19-Nov-20 14:57 40.508345 -122.298635 4 506ft 6kts
19-Nov-20 14:58 40.509942 -122.298271 0 506ft 0kts
19-Nov-20 14:59 40.509942 -122.298271 0 506ft 0kts
19-Nov-20 14:59 40.509942 -122.298271 0 506ft 0kts
19-Nov-20 15:01 39.501719 -119.764928 81 4418ft 0kts

Navigation Log

Ident Type
Flight plan parsing failed, navigation log unavailable